Time;durP1;ratioP1;P1;durP2;ratioP2;P2;SDS_P1;SDS_P2;PMS_P1;PMS_P2;Temp;Humidity;BMP_temperature;BMP_pressure;BME280_temperature;BME280_humidity;BME280_pressure;Samples;Min_cycle;Max_cycle;Signal;HPM_P1;HPM_P2
2021/08/21 00:01:04;;;;;;;9.10;4.47;;;17.60;75.00;;;16.75;73.73;96239.13;4926737;28;20447;-63
2021/08/21 00:03:30;;;;;;;8.50;4.57;;;17.70;74.90;;;16.72;73.44;96234.22;4945924;28;20582;-64
2021/08/21 00:05:56;;;;;;;5.82;4.55;;;17.70;75.00;;;16.72;73.92;96224.41;4971456;28;20035;-63
2021/08/21 00:08:22;;;;;;;5.80;4.45;;;17.70;75.00;;;16.72;74.28;96234.22;4957258;28;20420;-63
2021/08/21 00:10:47;;;;;;;5.93;4.28;;;17.60;75.20;;;16.70;74.59;96233.66;4947809;28;20074;-63
2021/08/21 00:13:13;;;;;;;6.40;4.15;;;17.70;75.30;;;16.69;74.16;96226.72;4954953;28;20035;-63
2021/08/21 00:15:39;;;;;;;5.60;4.13;;;17.70;75.30;;;16.69;73.77;96226.72;4915089;28;20071;-63
2021/08/21 00:18:05;;;;;;;7.22;4.60;;;17.70;75.30;;;16.69;74.44;96229.38;4948441;28;20138;-63
2021/08/21 00:20:30;;;;;;;6.97;4.47;;;17.70;75.30;;;16.67;74.15;96236.75;4956949;28;20078;-63
2021/08/21 00:22:56;;;;;;;7.95;4.05;;;17.70;75.20;;;16.65;74.31;96236.94;4939321;28;20122;-63
2021/08/21 00:25:22;;;;;;;6.55;4.40;;;17.60;75.20;;;16.63;74.37;96232.91;4962932;28;20036;-63
2021/08/21 00:27:48;;;;;;;6.57;4.60;;;17.60;75.20;;;16.63;73.95;96224.94;4959066;28;20117;-63
2021/08/21 00:30:14;;;;;;;7.57;4.88;;;17.60;75.20;;;16.59;74.42;96229.88;4952531;28;20121;-63
2021/08/21 00:32:40;;;;;;;7.65;4.60;;;17.60;75.30;;;16.58;74.31;96230.09;4959530;28;20037;-63
2021/08/21 00:35:06;;;;;;;6.45;4.60;;;17.60;75.30;;;16.54;74.61;96233.22;4962240;28;20431;-63
2021/08/21 00:37:32;;;;;;;5.30;4.55;;;17.60;75.40;;;16.52;74.89;96229.97;4945756;28;20046;-64
2021/08/21 00:39:57;;;;;;;5.75;4.68;;;17.50;75.70;;;16.49;74.79;96226.94;4961977;28;20051;-63
2021/08/21 00:42:23;;;;;;;7.93;4.75;;;17.50;75.70;;;16.47;74.81;96221.84;4951693;28;20054;-63
2021/08/21 00:44:49;;;;;;;6.47;4.50;;;17.50;75.80;;;16.45;74.70;96231.88;4954234;28;20090;-63
2021/08/21 00:47:18;;;;;;;6.18;4.55;;;17.40;76.00;;;16.43;75.92;96223.31;4945134;28;20506;-63
2021/08/21 00:49:54;;;;;;;6.88;4.45;;;17.50;75.90;;;16.40;75.96;96226.44;4962509;28;20526;-63
2021/08/21 00:52:23;;;;;;;7.97;4.93;;;17.40;76.30;;;16.37;75.67;96221.56;4951019;28;20122;-63
2021/08/21 00:54:49;;;;;;;6.60;4.30;;;17.40;76.20;;;16.35;75.79;96217.50;4959757;28;20131;-63
2021/08/21 00:57:16;;;;;;;6.75;4.70;;;17.30;76.30;;;16.32;75.23;96224.09;4917962;29;20039;-63
2021/08/21 00:59:43;;;;;;;5.18;4.38;;;17.30;76.30;;;16.28;75.10;96220.22;4954204;28;20458;-63
2021/08/21 01:02:09;;;;;;;6.63;4.72;;;17.20;76.10;;;16.26;75.63;96214.31;4943480;28;20035;-63
2021/08/21 01:04:36;;;;;;;7.22;4.55;;;17.20;76.10;;;16.21;74.98;96212.34;4938740;28;20419;-62
2021/08/21 01:07:04;;;;;;;6.40;4.78;;;17.20;76.40;;;16.18;75.60;96217.28;4923385;28;20023;-62
2021/08/21 01:09:31;;;;;;;5.68;4.68;;;17.10;76.40;;;16.12;75.85;96210.22;4933565;28;20047;-64
2021/08/21 01:11:57;;;;;;;5.65;4.35;;;17.10;76.50;;;16.10;75.71;96206.97;4929356;28;20578;-63
2021/08/21 01:14:26;;;;;;;5.60;4.32;;;17.10;76.60;;;16.09;75.82;96202.69;4923782;28;20074;-62
2021/08/21 01:16:54;;;;;;;8.55;4.88;;;17.10;76.70;;;16.10;76.32;96212.28;4951784;28;20043;-62
2021/08/21 01:19:19;;;;;;;7.95;4.50;;;17.10;76.70;;;16.09;76.50;96210.66;4970133;28;20045;-63
2021/08/21 01:21:45;;;;;;;5.32;4.47;;;17.10;76.80;;;16.07;75.98;96210.03;4935862;28;20142;-62
2021/08/21 01:24:11;;;;;;;6.20;4.38;;;17.00;76.50;;;16.03;76.29;96219.47;4935519;28;20035;-62
2021/08/21 01:26:56;;;;;;;5.22;4.28;;;16.90;76.80;;;15.96;76.60;96208.13;4956574;28;20035;-63
2021/08/21 01:29:22;;;;;;;4.95;4.43;;;16.90;76.90;;;15.91;75.77;96212.25;4954329;28;20042;-63
2021/08/21 01:31:48;;;;;;;8.23;5.00;;;16.90;77.00;;;15.88;75.50;96211.91;4926239;28;20051;-62
2021/08/21 01:34:14;;;;;;;8.23;4.22;;;16.90;77.00;;;15.85;76.36;96212.34;4944315;28;20062;-63
2021/08/21 01:36:45;;;;;;;5.53;4.05;;;16.90;76.90;;;15.84;76.65;96211.53;4912511;29;20081;-62
2021/08/21 01:39:11;;;;;;;4.75;3.65;;;17.00;76.80;;;15.84;76.46;96211.53;4958564;28;20039;-62
2021/08/21 01:41:37;;;;;;;5.45;3.95;;;16.90;76.90;;;15.82;76.03;96213.56;4945304;28;20023;-63
2021/08/21 01:44:14;;;;;;;4.55;4.03;;;16.90;77.00;;;15.82;77.36;96218.84;4951785;28;20101;-63
2021/08/21 01:46:40;;;;;;;7.75;4.28;;;16.90;76.90;;;15.80;77.17;96226.22;4929969;29;20027;-63
2021/08/21 01:49:08;;;;;;;5.10;4.10;;;16.80;77.20;;;15.77;76.49;96215.25;4952497;28;20034;-63
2021/08/21 01:51:42;;;;;;;6.32;4.03;;;16.80;77.40;;;15.73;77.96;96214.06;4948999;28;20051;-63
2021/08/21 01:54:16;;;;;;;4.63;3.53;;;16.70;77.30;;;15.68;76.77;96214.72;4948784;28;20046;-63
2021/08/21 01:56:52;;;;;;;5.72;3.50;;;16.70;77.30;;;15.66;77.41;96208.03;4930316;28;20070;-63
2021/08/21 01:59:29;;;;;;;4.40;3.78;;;16.70;77.30;;;15.66;77.74;96208.03;4944686;28;20039;-63
2021/08/21 02:01:55;;;;;;;5.78;2.97;;;16.70;77.40;;;15.63;76.34;96208.47;4928382;28;20058;-63
2021/08/21 02:04:21;;;;;;;4.95;3.80;;;16.70;77.30;;;15.60;76.35;96207.84;4960881;28;21133;-63
2021/08/21 02:06:48;;;;;;;6.57;3.67;;;16.60;77.40;;;15.58;77.84;96211.72;4944399;28;20063;-63
2021/08/21 02:09:16;;;;;;;8.10;3.85;;;16.60;77.50;;;15.56;77.88;96213.78;4937700;28;20062;-63
2021/08/21 02:11:42;;;;;;;6.03;3.88;;;16.60;77.60;;;15.54;76.60;96210.53;4967618;28;20035;-63
2021/08/21 02:14:08;;;;;;;6.18;3.78;;;16.60;77.60;;;15.54;76.75;96216.63;4936689;28;20091;-62
2021/08/21 02:16:34;;;;;;;5.72;3.78;;;16.60;77.60;;;15.52;77.07;96212.59;4955335;28;20515;-65
2021/08/21 02:18:59;;;;;;;4.95;3.80;;;16.60;77.40;;;15.51;77.37;96211.78;4931933;29;20384;-62
2021/08/21 02:21:25;;;;;;;5.30;4.07;;;16.60;77.40;;;15.47;77.30;96209.78;4955650;28;20122;-62
2021/08/21 02:23:52;;;;;;;4.47;4.05;;;16.50;77.50;;;15.46;77.81;96213.47;4971027;28;20039;-62
2021/08/21 02:26:18;;;;;;;7.40;3.58;;;16.50;77.60;;;15.45;77.76;96211.84;4961858;28;20092;-62
2021/08/21 02:28:44;;;;;;;4.90;3.75;;;16.50;77.60;;;15.43;77.22;96209.41;4975366;28;20061;-63
2021/08/21 02:31:10;;;;;;;6.43;3.72;;;16.50;77.70;;;15.41;76.88;96210.66;4951033;28;20062;-63
2021/08/21 02:33:35;;;;;;;6.13;3.65;;;16.50;77.70;;;15.38;77.29;96205.75;4967495;28;20059;-63
2021/08/21 02:36:01;;;;;;;6.30;3.88;;;16.50;77.60;;;15.36;76.68;96215.78;4964334;28;20035;-63
2021/08/21 02:38:27;;;;;;;6.57;4.25;;;16.40;77.80;;;15.33;77.53;96215.19;4933109;28;20039;-63
2021/08/21 02:40:53;;;;;;;5.20;4.05;;;16.40;77.90;;;15.32;77.10;96208.25;4935126;28;20035;-63
2021/08/21 02:43:20;;;;;;;7.68;4.40;;;16.40;77.90;;;15.33;77.50;96217.00;4952504;28;20044;-63
2021/08/21 02:45:47;;;;;;;5.03;4.53;;;16.40;77.90;;;15.32;77.87;96213.56;4941741;28;20035;-63
2021/08/21 02:48:12;;;;;;;7.95;5.38;;;16.40;77.80;;;15.30;78.36;96212.97;4942408;28;20456;-63
2021/08/21 02:50:38;;;;;;;7.80;5.20;;;16.40;77.80;;;15.26;77.92;96214.41;4937269;29;20089;-63
2021/08/21 02:53:04;;;;;;;6.90;5.18;;;16.30;77.90;;;15.25;77.29;96212.81;4969647;28;20771;-63
2021/08/21 02:55:30;;;;;;;6.35;5.38;;;16.30;78.00;;;15.23;77.46;96204.25;4934575;28;20507;-63
2021/08/21 02:57:55;;;;;;;7.32;5.82;;;16.30;78.20;;;15.19;77.28;96207.56;4963223;28;20514;-63
2021/08/21 03:00:21;;;;;;;9.50;6.25;;;16.20;78.50;;;15.18;78.81;96205.94;4944571;28;20165;-63
2021/08/21 03:02:47;;;;;;;7.95;6.47;;;16.20;78.70;;;15.18;78.65;96205.94;4915111;29;20542;-63
2021/08/21 03:05:13;;;;;;;7.82;6.53;;;16.20;78.90;;;15.17;78.04;96199.81;4948415;28;20036;-63
2021/08/21 03:07:38;;;;;;;9.02;6.15;;;16.30;78.80;;;15.17;79.31;96206.97;4969961;28;20436;-63
2021/08/21 03:10:05;;;;;;;7.88;5.63;;;16.30;78.80;;;15.16;79.39;96206.16;4961187;28;20197;-63
2021/08/21 03:12:32;;;;;;;6.53;5.85;;;16.30;78.70;;;15.15;78.08;96201.03;4956316;28;20035;-64
2021/08/21 03:14:58;;;;;;;8.55;6.60;;;16.30;78.70;;;15.12;79.50;96204.94;4948204;28;20039;-63
2021/08/21 03:17:24;;;;;;;7.47;6.18;;;16.30;78.80;;;15.11;79.62;96205.16;4969622;28;20118;-64
2021/08/21 03:19:49;;;;;;;9.70;6.32;;;16.20;78.80;;;15.09;78.41;96210.66;4956882;28;20031;-63
2021/08/21 03:22:15;;;;;;;7.35;6.38;;;16.20;79.00;;;15.07;79.08;96215.38;4939027;28;20035;-64
2021/08/21 03:24:41;;;;;;;7.60;6.00;;;16.20;79.00;;;15.06;79.55;96208.44;4947799;28;20070;-63
2021/08/21 03:27:06;;;;;;;8.80;6.82;;;16.20;79.20;;;15.05;79.72;96212.13;4936418;28;20127;-63
2021/08/21 03:29:33;;;;;;;7.18;6.00;;;16.10;78.70;;;15.01;78.60;96209.09;4956389;28;20109;-64
2021/08/21 03:31:58;;;;;;;7.20;5.63;;;16.10;78.80;;;14.99;78.52;96211.16;4945688;28;20042;-64
2021/08/21 03:34:24;;;;;;;8.75;5.80;;;16.10;78.80;;;14.97;78.54;96209.75;4956909;28;20051;-64
2021/08/21 03:36:51;;;;;;;6.88;6.15;;;16.10;78.90;;;14.95;78.95;96211.78;4969648;28;20035;-64
2021/08/21 03:39:17;;;;;;;7.13;5.60;;;16.10;79.00;;;14.94;79.03;96212.81;4937319;28;20383;-64
2021/08/21 03:41:43;;;;;;;7.40;5.88;;;16.10;79.00;;;14.93;79.56;96208.53;4916505;28;20062;-64
2021/08/21 03:44:09;;;;;;;6.32;5.72;;;16.10;78.90;;;14.92;80.09;96217.50;4916840;29;20083;-63
2021/08/21 03:46:34;;;;;;;6.38;5.78;;;16.00;78.70;;;14.89;80.03;96208.13;4948477;28;20047;-64
2021/08/21 03:49:00;;;;;;;6.30;5.05;;;16.00;78.80;;;14.84;79.93;96210.63;4906313;29;20040;-63
2021/08/21 03:51:26;;;;;;;8.20;5.80;;;15.90;79.00;;;14.80;78.52;96208.63;4951762;28;20106;-64
2021/08/21 03:53:52;;;;;;;6.78;5.68;;;15.90;79.20;;;14.75;79.69;96206.59;4936404;28;20051;-64
2021/08/21 03:56:17;;;;;;;8.25;6.32;;;15.80;79.50;;;14.75;79.90;96216.38;4931359;29;20039;-64
2021/08/21 03:58:43;;;;;;;7.07;5.90;;;15.90;79.50;;;14.75;79.50;96217.19;4931140;29;20530;-64
2021/08/21 04:01:09;;;;;;;6.10;5.50;;;15.80;79.50;;;14.75;80.28;96221.69;4950087;28;20035;-64
2021/08/21 04:03:35;;;;;;;8.15;5.82;;;15.80;79.30;;;14.74;80.28;96220.06;4954375;28;20125;-64
2021/08/21 04:06:01;;;;;;;6.22;5.55;;;15.80;79.10;;;14.73;79.37;96223.72;4963312;28;20055;-64
2021/08/21 04:08:27;;;;;;;8.05;5.80;;;15.80;79.10;;;14.72;79.38;96224.75;4968932;28;20040;-64
2021/08/21 04:10:53;;;;;;;7.07;5.50;;;15.80;79.20;;;14.69;80.11;96213.53;4979468;28;20066;-64
2021/08/21 04:13:19;;;;;;;6.00;5.32;;;15.80;79.20;;;14.67;79.41;96220.06;4977333;28;20031;-64
2021/08/21 04:15:44;;;;;;;6.10;5.50;;;15.80;79.20;;;14.67;80.18;96220.88;4931868;28;20055;-64
2021/08/21 04:18:10;;;;;;;6.40;5.28;;;15.80;79.10;;;14.68;79.35;96222.50;4948348;28;20481;-64
2021/08/21 04:20:36;;;;;;;8.40;5.90;;;15.80;79.00;;;14.65;79.85;96215.00;4945529;28;20067;-64
2021/08/21 04:23:02;;;;;;;9.25;6.00;;;15.80;79.10;;;14.63;80.22;96216.22;4938998;28;20491;-63
2021/08/21 04:25:27;;;;;;;8.70;5.95;;;15.80;79.30;;;14.61;80.38;96216.44;4944793;29;20082;-63
2021/08/21 04:27:54;;;;;;;9.25;5.60;;;15.80;79.40;;;14.59;80.85;96223.78;4932653;28;20494;-64
2021/08/21 04:30:19;;;;;;;7.10;6.30;;;15.80;79.50;;;14.58;79.93;96222.16;4933365;28;20040;-64
2021/08/21 04:32:45;;;;;;;6.65;5.85;;;15.80;79.70;;;14.61;80.07;96227.03;4933521;28;20034;-65
2021/08/21 04:35:11;;;;;;;7.13;5.70;;;15.80;79.60;;;14.62;81.22;96223.34;4947600;28;20063;-65
2021/08/21 04:37:37;;;;;;;6.15;5.47;;;15.80;79.30;;;14.61;80.87;96224.38;4963409;28;20032;-65
2021/08/21 04:40:05;;;;;;;8.40;5.00;;;15.80;79.20;;;14.62;79.84;96231.31;4926306;29;20719;-65
2021/08/21 04:42:31;;;;;;;24.52;20.65;;;15.80;79.20;;;14.63;80.30;96230.28;4895199;29;20554;-65
2021/08/21 04:44:59;;;;;;;20.77;17.92;;;15.80;79.40;;;14.63;81.03;96230.28;4926555;28;20040;-64
2021/08/21 04:47:27;;;;;;;23.92;19.73;;;15.80;79.80;;;14.63;80.27;96238.22;4926649;28;20040;-64
2021/08/21 04:49:54;;;;;;;24.92;21.38;;;15.80;80.00;;;14.64;80.75;96231.91;4935048;28;20118;-64
2021/08/21 04:52:20;;;;;;;24.98;22.13;;;15.90;80.10;;;14.67;79.96;96235.97;4945878;28;20083;-65
2021/08/21 04:54:46;;;;;;;19.25;16.35;;;15.90;80.10;;;14.67;81.84;96235.97;4930122;28;20066;-64
2021/08/21 04:57:12;;;;;;;13.65;12.35;;;16.00;80.00;;;14.66;81.51;96240.44;4943023;28;20051;-64
2021/08/21 04:59:37;;;;;;;9.88;8.88;;;16.00;79.80;;;14.67;80.72;96242.06;4947414;28;20031;-65
2021/08/21 05:02:03;;;;;;;10.07;8.25;;;16.00;79.90;;;14.69;81.85;96239.19;4932385;29;20478;-64
2021/08/21 05:04:29;;;;;;;10.35;7.30;;;16.00;80.00;;;14.70;81.01;96240.81;4964947;28;20094;-64
2021/08/21 05:06:55;;;;;;;10.70;8.32;;;16.00;80.30;;;14.71;81.71;96253.06;4948701;28;20055;-65
2021/08/21 05:09:20;;;;;;;10.70;7.57;;;16.10;80.30;;;14.73;82.06;96251.03;4932583;28;20478;-65
2021/08/21 05:11:46;;;;;;;8.85;7.70;;;16.10;80.40;;;14.77;82.86;96254.06;4928425;28;20055;-65
2021/08/21 05:14:12;;;;;;;11.18;7.85;;;16.10;80.40;;;14.79;81.22;96250.19;4929240;29;20040;-65
2021/08/21 05:16:42;;;;;;;13.85;8.05;;;16.10;80.10;;;14.81;81.83;96257.91;4945370;28;20048;-65
2021/08/21 05:19:13;;;;;;;10.82;7.20;;;16.20;80.00;;;14.84;82.25;96257.47;4929893;29;20044;-65
2021/08/21 05:21:48;;;;;;;12.23;7.75;;;16.20;80.20;;;14.89;82.12;96265.59;4947532;28;20225;-65
2021/08/21 05:24:14;;;;;;;10.15;7.38;;;16.20;80.40;;;14.93;82.50;96264.13;4947854;29;20063;-65
2021/08/21 05:26:39;;;;;;;8.88;7.97;;;16.30;80.50;;;14.99;81.98;96265.97;4932853;28;20023;-65
2021/08/21 05:29:05;;;;;;;11.55;8.35;;;16.50;80.50;;;15.07;81.89;96262.25;4932441;28;20184;-65
2021/08/21 05:31:31;;;;;;;10.30;7.47;;;16.50;80.60;;;15.13;82.24;96264.84;4923805;29;20051;-65
2021/08/21 05:33:57;;;;;;;9.52;7.72;;;16.60;80.50;;;15.20;83.06;96268.28;4903521;28;20280;-65
2021/08/21 05:36:23;;;;;;;10.23;7.65;;;16.70;80.40;;;15.27;83.31;96269.03;4935774;28;20564;-65
2021/08/21 05:38:49;;;;;;;9.68;8.00;;;16.80;80.30;;;15.36;83.47;96268.78;4967881;28;20035;-65
2021/08/21 05:41:14;;;;;;;9.50;7.72;;;16.90;80.00;;;15.47;82.75;96273.41;4937113;28;20039;-65
2021/08/21 05:43:40;;;;;;;9.52;7.78;;;17.10;79.80;;;15.55;82.29;96276.59;4916089;28;20059;-65
2021/08/21 05:46:06;;;;;;;10.40;8.07;;;17.20;79.50;;;15.64;83.43;96273.72;4935266;29;20055;-65
2021/08/21 05:48:32;;;;;;;8.80;7.90;;;17.20;79.30;;;15.73;83.09;96278.53;4936194;29;20043;-65
2021/08/21 05:50:57;;;;;;;8.30;7.47;;;17.30;78.90;;;15.82;82.97;96271.09;4916719;29;20067;-67
2021/08/21 05:53:23;;;;;;;19.85;17.08;;;17.40;78.50;;;15.91;82.57;96270.63;4936019;29;20464;-65
2021/08/21 05:55:49;;;;;;;61.70;48.70;;;17.60;78.00;;;16.01;81.69;96278.06;4951588;28;20581;-65
2021/08/21 05:58:15;;;;;;;19.88;17.02;;;17.70;77.80;;;16.15;81.64;96278.78;4951784;28;20067;-65
2021/08/21 06:00:40;;;;;;;10.15;8.65;;;17.80;77.00;;;16.25;81.72;96276.41;4935507;28;20375;-65
2021/08/21 06:03:06;;;;;;;10.15;6.88;;;18.00;76.80;;;16.38;80.93;96283.44;4951769;28;20114;-65
2021/08/21 06:05:32;;;;;;;19.38;15.88;;;18.10;76.20;;;16.47;80.70;96277.59;4951885;28;20490;-65
2021/08/21 06:07:58;;;;;;;23.50;19.52;;;18.20;76.00;;;16.57;80.17;96278.94;4933216;28;21084;-65
2021/08/21 06:10:24;;;;;;;11.25;9.85;;;18.30;75.80;;;16.65;80.43;96275.97;4948185;28;20036;-65
2021/08/21 06:12:50;;;;;;;8.75;6.72;;;18.40;75.70;;;16.74;80.08;96274.66;4947888;28;20059;-65
2021/08/21 06:15:15;;;;;;;9.38;7.07;;;18.60;75.20;;;16.83;79.78;96281.31;4948184;28;20139;-65
2021/08/21 06:17:41;;;;;;;9.10;6.88;;;18.60;75.10;;;16.94;79.65;96290.34;4957062;28;20480;-65
2021/08/21 06:20:07;;;;;;;8.70;6.43;;;18.80;74.70;;;17.04;80.19;96294.13;4950415;28;20518;-65
2021/08/21 06:22:33;;;;;;;9.32;6.68;;;18.90;74.40;;;17.14;79.97;96289.06;4949682;28;20050;-65
2021/08/21 06:24:59;;;;;;;22.10;16.13;;;19.10;74.10;;;17.27;79.75;96295.25;4931950;29;20066;-65
2021/08/21 06:27:24;;;;;;;22.30;18.08;;;19.20;73.60;;;17.37;78.78;96290.19;4948469;28;20555;-65
2021/08/21 06:29:50;;;;;;;19.77;15.95;;;19.40;73.10;;;17.47;78.75;96287.00;4930208;28;20682;-65
2021/08/21 06:32:16;;;;;;;9.32;8.00;;;19.50;72.60;;;17.57;78.31;96285.38;4914525;29;20039;-64
2021/08/21 06:34:41;;;;;;;10.25;7.22;;;19.60;71.90;;;17.66;78.39;96294.69;4932102;29;20036;-64
2021/08/21 06:37:08;;;;;;;10.75;6.57;;;19.70;71.70;;;17.77;77.44;96292.28;4951040;28;20035;-65
2021/08/21 06:39:34;;;;;;;8.48;6.78;;;19.80;71.80;;;17.84;78.12;96290.31;4934342;28;20043;-65
2021/08/21 06:42:00;;;;;;;8.20;6.55;;;19.80;71.10;;;17.92;77.11;96288.16;4950470;28;20182;-64
2021/08/21 06:44:25;;;;;;;8.98;6.47;;;20.00;71.10;;;17.98;77.31;96287.22;4934988;29;20043;-64
2021/08/21 06:46:51;;;;;;;9.63;6.85;;;20.10;70.70;;;18.07;77.03;96290.34;4935116;28;20032;-65
2021/08/21 06:49:17;;;;;;;9.20;7.18;;;20.20;70.00;;;18.15;76.06;96291.84;4966733;28;20062;-65
2021/08/21 06:51:43;;;;;;;31.13;25.38;;;20.20;69.80;;;18.22;77.01;96289.88;4949718;28;20747;-65
2021/08/21 06:54:08;;;;;;;18.45;13.85;;;20.40;70.30;;;18.30;76.72;96290.31;4947335;28;20039;-65
2021/08/21 06:56:34;;;;;;;15.13;10.27;;;20.50;70.00;;;18.38;76.11;96285.72;4946881;28;20035;-65
2021/08/21 06:59:00;;;;;;;12.90;9.18;;;20.50;69.60;;;18.46;76.28;96280.00;4926773;29;20179;-65
2021/08/21 07:01:27;;;;;;;13.18;7.80;;;20.50;69.60;;;18.56;76.46;96289.06;4929754;29;20145;-64
2021/08/21 07:03:53;;;;;;;15.70;7.47;;;20.60;70.10;;;18.66;75.95;96288.47;4965079;28;20085;-66
2021/08/21 07:06:18;;;;;;;11.30;7.47;;;20.60;69.70;;;18.75;75.11;96287.03;4951833;28;20483;-65
2021/08/21 07:08:44;;;;;;;11.68;8.40;;;20.70;69.30;;;18.85;74.70;96292.59;4951509;28;20039;-65
2021/08/21 07:11:10;;;;;;;17.83;11.55;;;20.80;68.70;;;18.96;74.61;96289.06;4934455;29;20050;-64
2021/08/21 07:13:36;;;;;;;8.77;7.32;;;21.00;69.50;;;19.11;74.27;96285.09;4948604;28;20515;-65
2021/08/21 07:16:01;;;;;;;11.00;7.20;;;21.20;68.20;;;19.23;74.33;96289.31;4927643;29;20516;-65
2021/08/21 07:18:27;;;;;;;8.80;7.55;;;21.20;68.60;;;19.33;73.99;96294.03;4954222;28;20511;-64
2021/08/21 07:20:53;;;;;;;35.40;27.17;;;21.30;68.20;;;19.44;73.30;96295.84;4951216;28;20123;-64
2021/08/21 07:23:19;;;;;;;11.15;9.57;;;21.50;67.00;;;19.58;73.73;96291.84;4958925;28;20032;-63
2021/08/21 07:25:44;;;;;;;12.93;9.05;;;21.70;65.40;;;19.76;73.49;96290.81;4932161;28;20067;-63
2021/08/21 07:28:10;;;;;;;11.48;7.55;;;22.00;65.20;;;19.94;72.46;96289.78;4946763;28;20040;-63
2021/08/21 07:30:37;;;;;;;11.88;7.65;;;22.20;64.70;;;20.06;71.88;96285.16;4947503;28;20078;-63
2021/08/21 07:33:03;;;;;;;18.45;13.30;;;22.30;64.60;;;20.25;71.74;96287.56;4949760;28;20050;-63
2021/08/21 07:35:28;;;;;;;13.70;9.90;;;22.60;64.00;;;20.44;70.86;96289.75;4950106;28;20032;-63
2021/08/21 07:37:54;;;;;;;10.30;6.93;;;23.00;62.30;;;20.69;70.63;96291.94;4949316;28;20086;-63
2021/08/21 07:40:20;;;;;;;12.45;7.78;;;23.50;61.10;;;20.94;70.18;96288.78;4965918;28;20065;-63
2021/08/21 07:42:45;;;;;;;8.20;7.05;;;23.90;59.50;;;21.17;69.69;96282.34;4950326;28;20411;-64
2021/08/21 07:45:12;;;;;;;11.80;8.73;;;24.30;58.80;;;21.45;68.70;96288.53;4950229;28;20476;-64
2021/08/21 07:47:38;;;;;;;25.23;19.02;;;24.50;57.00;;;21.70;68.76;96286.09;4965923;28;20038;-64
2021/08/21 07:50:04;;;;;;;16.85;13.10;;;24.80;56.70;;;21.94;67.92;96292.72;4950845;28;20036;-64
2021/08/21 07:52:29;;;;;;;14.70;10.65;;;25.10;56.10;;;22.17;67.01;96296.13;4930981;28;20050;-64
2021/08/21 07:54:56;;;;;;;8.48;6.72;;;25.40;55.20;;;22.44;66.84;96290.72;4947027;28;20419;-64
2021/08/21 07:57:22;;;;;;;9.00;7.00;;;25.80;53.70;;;22.69;66.29;96287.38;4941970;29;20040;-65
2021/08/21 07:59:47;;;;;;;7.10;6.28;;;26.10;53.10;;;22.91;65.64;96294.19;4912044;28;20471;-65
2021/08/21 08:02:14;;;;;;;9.20;6.68;;;26.30;51.90;;;23.18;65.12;96287.84;4949680;28;20043;-64
2021/08/21 08:04:40;;;;;;;7.93;6.50;;;26.60;51.90;;;23.42;64.17;96285.50;4949903;28;20031;-64
2021/08/21 08:07:05;;;;;;;9.20;6.60;;;26.90;50.90;;;23.65;63.48;96292.28;4933293;28;20028;-63
2021/08/21 08:09:31;;;;;;;8.95;6.55;;;27.00;50.20;;;23.87;62.95;96281.28;4944898;28;20559;-67
2021/08/21 08:11:57;;;;;;;9.43;6.90;;;27.40;49.70;;;24.12;61.69;96290.13;4928487;29;20075;-66
2021/08/21 08:14:23;;;;;;;9.57;6.75;;;27.50;48.10;;;24.30;61.24;96299.56;4926771;28;20469;-65
2021/08/21 08:16:48;;;;;;;8.82;6.60;;;27.50;48.30;;;24.52;60.58;96288.50;4914308;29;20590;-65
2021/08/21 08:19:14;;;;;;;12.82;6.35;;;27.90;48.40;;;24.74;60.23;96296.25;4961701;28;20158;-66
2021/08/21 08:21:40;;;;;;;9.63;6.20;;;28.10;48.20;;;24.96;59.64;96299.38;4929563;28;20059;-66
2021/08/21 08:24:06;;;;;;;8.70;6.30;;;28.30;47.60;;;25.15;59.01;96296.13;4933396;28;20025;-67
2021/08/21 08:26:32;;;;;;;17.58;12.27;;;28.50;46.40;;;25.33;58.72;96303.53;4933057;29;20031;-67
2021/08/21 08:28:57;;;;;;;12.50;7.70;;;28.70;45.70;;;25.48;57.85;96298.06;4936181;28;20495;-67
2021/08/21 08:31:23;;;;;;;18.67;13.13;;;28.90;44.50;;;25.68;57.54;96309.84;4918382;29;20040;-68
2021/08/21 08:33:49;;;;;;;8.50;6.65;;;29.00;44.80;;;25.86;56.78;96306.50;4963807;28;20050;-67
2021/08/21 08:36:14;;;;;;;8.10;6.20;;;29.10;44.90;;;26.01;56.15;96298.25;4950023;28;20058;-66
2021/08/21 08:38:40;;;;;;;8.05;6.35;;;29.20;44.70;;;26.06;55.92;96295.53;4945309;28;20081;-67
2021/08/21 08:41:10;;;;;;;10.80;6.18;;;29.10;45.00;;;26.15;54.40;96301.13;4933058;29;20578;-67
2021/08/21 08:43:36;;;;;;;7.00;6.05;;;29.10;45.30;;;26.30;56.13;96300.19;4948790;28;20054;-67
2021/08/21 08:46:03;;;;;;;16.52;7.00;;;29.40;44.90;;;26.43;55.50;96304.94;4935449;28;20403;-68
2021/08/21 08:48:30;;;;;;;8.48;6.38;;;29.50;44.40;;;26.53;55.41;96302.16;4947926;28;20047;-67
2021/08/21 08:50:55;;;;;;;9.32;6.30;;;29.60;44.90;;;26.65;54.65;96302.56;4917155;29;20035;-67
2021/08/21 08:53:21;;;;;;;8.40;5.93;;;29.70;42.90;;;26.73;53.98;96303.84;4949288;28;20464;-66
2021/08/21 08:55:47;;;;;;;8.55;7.07;;;29.80;43.60;;;26.79;53.95;96298.09;4948239;28;20525;-66
2021/08/21 08:58:13;;;;;;;7.18;5.82;;;29.50;44.00;;;26.97;53.92;96299.25;4948510;28;20035;-67
2021/08/21 09:00:38;;;;;;;15.02;6.10;;;30.00;44.70;;;27.15;53.48;96300.38;4964426;28;20130;-67
2021/08/21 09:03:04;;;;;;;7.63;5.55;;;30.30;42.80;;;27.38;52.86;96294.13;4964360;28;20126;-67
2021/08/21 09:05:40;;;;;;;7.40;5.07;;;30.70;41.70;;;27.59;49.91;96294.66;4940565;28;20066;-66
2021/08/21 09:08:06;;;;;;;8.35;5.50;;;30.80;40.80;;;27.78;52.03;96289.25;4940790;28;20039;-66
2021/08/21 09:10:33;;;;;;;8.43;6.20;;;31.10;42.00;;;28.02;51.44;96294.56;4934036;28;20035;-66
2021/08/21 09:13:15;;;;;;;9.80;4.78;;;31.50;40.70;;;28.33;48.42;96289.50;4937348;28;20024;-66
2021/08/21 09:15:49;;;;;;;7.45;5.10;;;31.80;39.60;;;28.58;48.09;96289.03;4929247;28;20040;-65
2021/08/21 09:18:26;;;;;;;7.35;4.65;;;32.00;39.40;;;28.83;46.94;96284.22;4927250;29;20068;-63
2021/08/21 09:21:00;;;;;;;16.92;12.25;;;32.20;38.30;;;29.04;46.47;96287.38;4963611;28;20072;-63
2021/08/21 09:23:46;;;;;;;7.70;5.68;;;32.40;38.10;;;29.20;45.61;96284.03;4948903;28;20051;-63
2021/08/21 09:26:20;;;;;;;6.05;4.22;;;32.50;38.40;;;29.33;45.12;96287.81;4932470;29;20066;-63
2021/08/21 09:28:52;;;;;;;6.30;5.05;;;32.50;37.40;;;29.39;46.60;96285.78;4932422;28;21384;-63
2021/08/21 09:31:33;;;;;;;5.28;4.40;;;32.30;37.80;;;29.51;44.85;96289.63;4940342;28;20031;-63
2021/08/21 09:34:05;;;;;;;6.18;4.43;;;32.60;37.80;;;29.63;45.76;96286.38;4933625;28;20127;-63
2021/08/21 09:36:37;;;;;;;7.32;4.47;;;32.60;38.60;;;29.68;45.42;96290.88;4954073;28;20047;-63
2021/08/21 09:39:10;;;;;;;6.07;4.30;;;32.60;37.40;;;29.81;44.39;96292.72;4949126;28;20031;-63
2021/08/21 09:41:56;;;;;;;6.70;5.43;;;32.80;37.40;;;29.83;42.36;96291.31;4947769;28;20174;-63
2021/08/21 09:44:42;;;;;;;18.25;12.23;;;32.90;36.00;;;30.06;42.28;96285.94;4952241;28;20713;-63
2021/08/21 09:47:18;;;;;;;6.82;4.35;;;33.30;35.10;;;30.20;41.84;96289.38;4948312;28;20046;-63
2021/08/21 09:49:44;;;;;;;7.10;4.00;;;33.30;35.20;;;30.40;43.95;96288.06;4963919;28;20533;-63
2021/08/21 09:52:12;;;;;;;5.57;3.78;;;33.60;35.50;;;30.54;43.62;96288.75;4932356;29;20046;-63
2021/08/21 09:55:01;;;;;;;6.97;5.20;;;33.60;35.60;;;30.47;40.97;96282.97;4963109;28;20470;-65
2021/08/21 09:57:27;;;;;;;9.38;8.25;;;33.20;34.90;;;30.35;43.62;96280.06;4948003;28;20044;-66
2021/08/21 09:59:57;;;;;;;11.38;9.48;;;33.20;35.80;;;30.30;43.81;96285.59;4931855;28;20122;-65
2021/08/21 10:02:23;;;;;;;5.30;4.35;;;33.10;36.50;;;30.27;42.99;96284.31;4932420;28;20031;-65
2021/08/21 10:04:49;;;;;;;7.78;3.83;;;33.20;35.10;;;30.39;43.08;96281.84;4909898;29;20036;-65
2021/08/21 10:07:18;;;;;;;5.97;3.67;;;33.60;35.70;;;30.47;42.96;96282.97;4934756;28;20593;-65
2021/08/21 10:09:44;;;;;;;4.53;3.72;;;33.70;35.10;;;30.64;42.74;96276.88;4928198;28;20040;-65
2021/08/21 10:12:11;;;;;;;11.20;9.32;;;34.50;34.80;;;30.90;41.97;96275.06;4913076;29;20122;-65
2021/08/21 10:14:40;;;;;;;8.73;6.80;;;34.90;33.50;;;31.11;42.05;96266.31;4922545;28;20566;-65
2021/08/21 10:17:06;;;;;;;8.32;5.10;;;35.10;34.10;;;31.33;42.47;96269.75;4943521;28;20095;-66